Latest Weather Observations for Cairns

IDQ60801

Issued at 11:32 am EST Thursday 23 January 2020 (issued every 10 minutes, with the page automatically refreshed every 10 minutes)

About weather observations | Map of weather stations | Latest weather observations for QLD | Other Formats
Station Details ID: 031011 Name: CAIRNS AERO Lat: -16.87 Lon: 145.75 Height: 2.22 m
Data from the previous 72 hours. | See also: Recent months at Cairns
Date/Time
EST
Temp
°C
App
Temp
°C
Dew
Point
°C
Rel
Hum
%
Delta-T
°C
Wind Press
QNH
hPa
Press
MSL
hPa
Rain since
9am
mm
Dir  Spd
km/h
Gust
km/h
Spd
kts
Gust
kts
23/11:00am 30.9 35.9 24.8 70 4.3 NE 7 15 4 8 1010.3 1010.3 0.0
23/10:30am 31.0 34.9 24.9 70 4.3 ENE 13 19 7 10 1010.5 1010.5 0.0
23/10:00am 32.0 36.2 24.8 65 5.1 NE 11 17 6 9 1010.9 1010.9 0.0
23/09:30am 31.7 37.1 25.1 68 4.7 ESE 6 9 3 5 1011.1 1011.1 0.0
23/09:00am 30.6 35.5 24.3 69 4.4 SE 6 7 3 4 1011.3 1011.3 -
23/08:30am 30.4 37.2 25.5 75 3.5 CALM 0 4 0 2 1011.2 1011.2 -
23/08:00am 29.1 35.1 25.5 81 2.5 SW 4 7 2 4 1010.8 1010.8 -
23/07:30am 28.1 33.4 24.9 83 2.2 SSE 6 11 3 6 1010.5 1010.5 -
23/07:00am 26.6 33.2 25.2 92 1.0 CALM 0 0 0 0 1010.3 1010.3 -
23/06:30am 26.0 32.2 24.6 92 1.0 CALM 0 0 0 0 1009.8 1009.8 -
23/06:00am 25.9 31.4 24.7 93 0.8 WSW 4 7 2 4 1009.7 1009.7 -
23/05:30am 25.5 31.5 24.3 93 0.8 CALM 0 0 0 0 1009.1 1009.1 -
23/05:00am 25.7 31.7 24.3 92 1.0 CALM 0 0 0 0 1008.9 1008.9 -
23/04:30am 26.0 32.5 25.0 94 0.7 CALM 0 0 0 0 1008.8 1008.8 -
23/04:00am 25.7 31.8 24.5 93 0.8 CALM 0 0 0 0 1008.7 1008.7 -
23/03:30am 25.7 31.8 24.5 93 0.8 CALM 0 0 0 0 1008.5 1008.5 -
23/03:00am 25.8 32.0 24.6 93 0.8 CALM 0 0 0 0 1008.6 1008.6 0.0
23/02:30am 25.8 31.6 24.6 93 0.8 W 2 6 1 3 1008.8 1008.8 0.0
23/02:00am 25.8 31.8 24.8 94 0.7 WSW 2 6 1 3 1008.9 1008.9 0.0
23/01:30am 25.7 32.0 24.7 94 0.7 CALM 0 0 0 0 1009.3 1009.3 0.0
23/01:00am 25.9 32.2 24.7 93 0.8 CALM 0 0 0 0 1009.9 1009.9 0.0
23/12:30am 26.0 32.2 24.6 92 1.0 CALM 0 2 0 1 1010.0 1010.0 0.0
23/12:00am 26.3 32.2 24.7 91 1.1 WNW 2 4 1 2 1010.4 1010.4 0.0
 
Date/Time
EST
Temp
°C
App
Temp
°C
Dew
Point
°C
Rel
Hum
%
Delta-T
°C
Wind Press
QNH
hPa
Press
MSL
hPa
Rain since
9am
mm
Dir  Spd
km/h
Gust
km/h
Spd
kts
Gust
kts
22/11:30pm 26.7 32.1 25.1 91 1.1 SE 6 9 3 5 1010.3 1010.3 0.0
22/11:00pm 26.6 32.9 24.8 90 1.3 CALM 0 0 0 0 1010.5 1010.5 0.0
22/10:30pm 26.9 33.3 24.9 89 1.4 CALM 0 0 0 0 1010.8 1010.8 0.0
22/10:00pm 27.0 33.1 25.0 89 1.4 W 2 4 1 2 1010.5 1010.5 0.0
22/09:30pm 27.2 33.7 25.0 88 1.5 CALM 0 0 0 0 1009.8 1009.8 0.0
22/09:00pm 27.4 33.1 25.0 87 1.7 SSE 4 6 2 3 1009.6 1009.6 0.0
22/08:30pm 27.5 32.8 24.9 86 1.8 SE 6 7 3 4 1009.3 1009.3 0.0
22/08:00pm 27.4 33.4 24.8 86 1.8 SSW 2 4 1 2 1008.9 1008.9 0.0
22/07:30pm 28.1 34.4 24.7 82 2.4 CALM 0 0 0 0 1008.4 1008.4 0.0
22/07:00pm 28.3 34.3 24.3 79 2.8 CALM 0 0 0 0 1008.2 1008.2 0.0
22/06:30pm 28.8 34.5 24.4 77 3.1 WSW 2 4 1 2 1007.8 1007.8 0.0
22/06:00pm 29.0 34.6 24.3 76 3.3 WSW 2 4 1 2 1007.6 1007.6 0.0
22/05:30pm 28.9 34.1 24.2 76 3.3 W 4 7 2 4 1007.3 1007.3 0.0
22/05:00pm 28.8 33.5 23.9 75 3.4 W 6 7 3 4 1007.3 1007.3 0.0
22/04:30pm 28.8 33.5 23.9 75 3.4 W 6 7 3 4 1007.2 1007.2 0.0
22/04:00pm 28.5 32.9 23.4 74 3.5 W 6 9 3 5 1007.3 1007.3 0.0
22/03:30pm 28.3 32.2 23.0 73 3.6 W 7 11 4 6 1007.7 1007.7 0.0
22/03:14pm 28.8 34.0 24.8 79 2.8 NW 6 7 3 4 1007.8 1007.8 0.0
22/03:05pm 28.9 34.0 24.7 78 2.9 NW 6 7 3 4 1007.6 1007.6 0.0
22/03:00pm 28.9 34.0 24.7 78 2.9 WNW 6 11 3 6 1007.7 1007.7 0.0
22/02:40pm 29.1 33.7 24.7 77 3.1 NNW 9 13 5 7 1008.0 1008.0 0.0
22/02:30pm 29.1 33.1 24.4 76 3.3 N 11 17 6 9 1008.2 1008.2 0.0
22/02:00pm 30.6 33.8 25.0 72 3.9 NNE 17 24 9 13 1008.3 1008.3 0.0
22/01:57pm 30.9 34.4 25.5 73 3.8 NNE 17 24 9 13 1008.2 1008.2 0.0
22/01:30pm 31.2 35.0 25.3 71 4.2 NE 15 24 8 13 1008.3 1008.3 0.0
22/01:00pm 30.6 34.3 25.2 73 3.8 NNE 15 30 8 16 1008.8 1008.8 0.0
22/12:30pm 30.8 34.5 25.8 74 3.6 NE 17 22 9 12 1009.1 1009.1 0.0
22/12:00pm 30.8 35.7 25.8 74 3.6 NNE 11 17 6 9 1009.6 1009.6 0.0
22/11:30am 31.0 36.3 26.5 77 3.2 ENE 11 17 6 9 1009.6 1009.6 0.0
22/11:00am 30.8 36.5 25.6 74 3.7 ESE 6 9 3 5 1010.0 1010.0 0.0
22/10:30am 29.9 35.3 25.2 76 3.3 SSE 6 9 3 5 1010.3 1010.3 0.0
22/10:00am 29.2 34.8 25.4 80 2.7 SE 6 9 3 5 1010.8 1010.8 0.0
22/09:30am 29.4 35.9 25.6 80 2.7 NW 2 6 1 3 1011.0 1011.0 0.0
22/09:00am 28.7 34.3 24.9 80 2.7 WSW 4 11 2 6 1011.0 1011.0 0.0
22/08:30am 28.3 33.9 24.9 82 2.4 ESE 4 6 2 3 1011.2 1011.2 0.0
22/08:00am 27.7 32.8 24.9 85 2.0 NNE 7 17 4 9 1011.0 1011.0 0.0
22/07:38am 27.8 33.9 25.0 85 2.0 W 2 4 1 2 1010.8 1010.8 0.0
22/07:30am 27.8 33.2 25.2 86 1.8 NNW 6 6 3 3 1010.6 1010.6 0.0
22/07:25am 27.7 33.5 25.1 86 1.8 NNW 4 6 2 3 1010.5 1010.5 0.0
22/07:00am 27.7 34.0 24.7 84 2.1 CALM 0 2 0 1 1009.8 1009.8 0.0
22/06:30am 27.3 33.1 25.1 88 1.5 SE 4 11 2 6 1009.7 1009.7 0.0
22/06:00am 27.3 33.9 25.3 89 1.4 CALM 0 0 0 0 1009.1 1009.1 0.0
22/05:30am 27.2 33.8 25.2 89 1.4 CALM 0 0 0 0 1009.0 1009.0 0.0
22/05:00am 27.1 33.9 25.5 91 1.1 CALM 0 0 0 0 1008.7 1008.7 0.0
22/04:30am 27.0 32.8 25.2 90 1.3 W 4 4 2 2 1008.5 1008.5 0.0
22/04:00am 27.2 33.7 25.0 88 1.5 CALM 0 4 0 2 1008.1 1008.1 0.0
22/03:30am 27.5 32.4 24.6 84 2.0 SSE 7 9 4 5 1008.0 1008.0 0.0
22/03:00am 27.2 34.0 25.6 91 1.1 CALM 0 0 0 0 1008.0 1008.0 0.0
22/02:30am 27.4 34.1 25.4 89 1.4 CALM 0 0 0 0 1008.2 1008.2 0.0
22/02:00am 27.4 33.6 25.2 88 1.5 W 2 4 1 2 1008.4 1008.4 0.0
22/01:30am 27.5 34.1 25.3 88 1.5 CALM 0 0 0 0 1008.6 1008.6 0.0
22/01:00am 27.7 34.1 25.5 88 1.5 W 2 6 1 3 1009.1 1009.1 0.0
22/12:30am 28.1 33.5 25.1 84 2.1 SSE 6 9 3 5 1009.2 1009.2 0.0
22/12:00am 28.4 33.8 25.2 83 2.2 SE 6 7 3 4 1009.6 1009.6 0.0
 
Date/Time
EST
Temp
°C
App
Temp
°C
Dew
Point
°C
Rel
Hum
%
Delta-T
°C
Wind Press
QNH
hPa
Press
MSL
hPa
Rain since
9am
mm
Dir  Spd
km/h
Gust
km/h
Spd
kts
Gust
kts
21/11:30pm 28.5 34.9 25.5 84 2.1 SSE 2 4 1 2 1010.0 1010.0 0.0
21/11:12pm 28.1 34.6 25.7 87 1.7 WSW 2 6 1 3 1010.0 1010.0 0.0
21/11:00pm 28.2 33.9 25.6 86 1.8 W 6 9 3 5 1010.1 1010.1 0.0
21/10:41pm 28.1 33.5 25.5 86 1.8 W 7 11 4 6 1010.1 1010.1 0.0
21/10:30pm 28.2 34.2 26.0 88 1.6 NW 6 6 3 3 1010.1 1010.1 0.0
21/10:00pm 28.1 33.9 25.7 87 1.7 W 6 7 3 4 1009.6 1009.6 0.0
21/09:30pm 28.4 34.2 25.8 86 1.8 NW 6 7 3 4 1009.3 1009.3 0.0
21/09:00pm 28.7 35.1 25.5 83 2.3 N 2 4 1 2 1009.3 1009.3 0.0
21/08:30pm 29.4 36.0 25.2 78 3.0 CALM 0 2 0 1 1009.2 1009.2 0.0
21/08:00pm 29.6 34.7 24.9 76 3.3 ESE 7 13 4 7 1008.9 1008.9 0.0
21/07:30pm 29.9 34.6 25.0 75 3.4 ESE 9 13 5 7 1008.6 1008.6 0.0
21/07:00pm 30.0 34.8 25.1 75 3.5 E 9 13 5 7 1008.2 1008.2 0.0
21/06:30pm 30.3 35.1 25.1 73 3.7 ENE 9 17 5 9 1007.7 1007.7 0.0
21/06:00pm 30.1 34.7 25.4 76 3.3 ENE 11 19 6 10 1007.2 1007.2 0.0
21/05:30pm 30.3 34.7 26.2 79 2.9 ENE 15 20 8 11 1006.8 1006.8 0.0
21/05:00pm 30.6 34.7 26.3 78 3.1 NE 17 24 9 13 1006.3 1006.3 0.0
21/04:30pm 30.8 34.9 26.3 77 3.2 NE 17 24 9 13 1006.3 1006.3 0.0
21/04:00pm 31.3 35.5 27.0 78 3.1 NE 19 26 10 14 1006.3 1006.3 0.0
21/03:30pm 32.0 36.5 27.5 77 3.3 NE 19 26 10 14 1006.2 1006.2 0.0
21/03:00pm 31.9 36.0 26.9 75 3.6 NE 19 28 10 15 1006.3 1006.3 0.0
21/02:30pm 32.6 36.3 26.6 70 4.3 NE 20 26 11 14 1006.4 1006.4 0.0
21/02:00pm 32.8 36.3 26.8 70 4.3 NE 22 28 12 15 1006.5 1006.5 0.0
21/01:30pm 33.0 37.3 27.5 73 4.0 NE 20 28 11 15 1007.0 1007.0 0.0
21/01:00pm 33.3 37.3 27.1 70 4.5 NE 20 28 11 15 1007.5 1007.5 0.0
21/12:30pm 32.5 36.8 27.5 75 3.6 NE 20 35 11 19 1007.9 1007.9 0.0
21/12:00pm 32.3 36.7 27.3 75 3.6 NE 19 26 10 14 1008.5 1008.5 0.0
21/11:30am 32.5 37.8 27.5 75 3.6 NE 15 19 8 10 1009.0 1009.0 0.0
21/11:00am 31.7 36.3 26.5 74 3.7 NE 15 20 8 11 1009.4 1009.4 0.0
21/10:30am 32.2 37.1 25.8 69 4.6 NE 11 15 6 8 1009.6 1009.6 0.0
21/10:00am 31.9 37.2 25.2 67 4.7 NE 7 13 4 7 1009.5 1009.5 0.0
21/09:30am 31.5 37.0 24.1 65 5.2 NE 2 6 1 3 1009.4 1009.4 0.0
21/09:00am 31.0 36.2 23.6 64 5.1 NW 2 9 1 5 1009.3 1009.3 1.2
21/08:30am 29.8 35.8 24.2 72 3.9 CALM 0 0 0 0 1009.6 1009.6 1.2
21/08:00am 28.8 34.3 24.1 76 3.3 WNW 2 4 1 2 1009.8 1009.8 1.2
21/07:30am 27.6 33.6 24.2 82 2.4 CALM 0 0 0 0 1009.8 1009.8 1.2
21/07:00am 26.7 31.9 24.2 86 1.7 SSE 4 6 2 3 1009.6 1009.6 1.2
21/06:30am 25.7 30.9 23.6 88 1.4 W 2 6 1 3 1009.3 1009.3 1.2
21/06:00am 25.7 30.6 23.7 89 1.4 NNE 4 6 2 3 1008.8 1008.8 1.2
21/05:30am 25.5 31.1 23.6 89 1.3 CALM 0 0 0 0 1008.3 1008.3 1.2
21/05:00am 25.6 31.3 23.7 89 1.3 CALM 0 4 0 2 1008.1 1008.1 1.2
21/04:30am 25.5 30.6 23.4 88 1.4 NW 2 4 1 2 1007.8 1007.8 1.2
21/04:00am 25.5 30.6 23.4 88 1.4 W 2 4 1 2 1007.5 1007.5 1.2
21/03:30am 25.4 30.8 23.3 88 1.4 CALM 0 0 0 0 1007.4 1007.4 1.2
21/03:00am 25.2 29.3 22.9 87 1.6 SSE 6 9 3 5 1007.3 1007.3 1.2
21/02:30am 25.6 29.6 22.7 84 2.0 WNW 6 9 3 5 1007.2 1007.2 1.2
21/02:00am 25.4 30.5 22.7 85 1.8 CALM 0 2 0 1 1007.2 1007.2 1.2
21/01:30am 26.0 29.8 22.7 82 2.2 W 7 11 4 6 1007.3 1007.3 1.2
21/01:00am 25.3 29.7 22.8 86 1.7 W 4 4 2 2 1007.6 1007.6 1.2
21/12:30am 25.1 29.6 23.0 88 1.4 WNW 4 6 2 3 1007.8 1007.8 1.2
21/12:00am 25.5 30.5 23.2 87 1.6 W 2 4 1 2 1008.1 1008.1 1.2
 
Date/Time
EST
Temp
°C
App
Temp
°C
Dew
Point
°C
Rel
Hum
%
Delta-T
°C
Wind Press
QNH
hPa
Press
MSL
hPa
Rain since
9am
mm
Dir  Spd
km/h
Gust
km/h
Spd
kts
Gust
kts
20/11:30pm 25.3 30.8 23.4 89 1.3 CALM 0 0 0 0 1007.9 1007.9 1.2
20/11:00pm 25.3 30.2 23.0 87 1.6 WSW 2 4 1 2 1008.2 1008.2 1.2
20/10:30pm 25.6 29.1 22.9 85 1.8 W 9 15 5 8 1008.4 1008.4 1.2
20/10:00pm 26.3 29.5 22.4 79 2.6 W 9 13 5 7 1008.0 1008.0 1.2
20/09:30pm 26.4 29.7 22.5 79 2.6 W 9 17 5 9 1007.5 1007.5 1.2
20/09:00pm 26.5 30.2 22.6 79 2.6 W 7 11 4 6 1006.9 1006.9 1.2
20/08:30pm 26.1 30.6 23.0 83 2.1 WSW 4 6 2 3 1006.5 1006.5 1.2
20/08:00pm 25.7 30.4 23.4 87 1.6 W 4 7 2 4 1006.0 1006.0 1.0
20/07:30pm 25.3 29.7 23.4 89 1.3 W 6 7 3 4 1005.7 1005.7 1.0
20/07:00pm 25.0 29.5 23.6 92 1.0 W 6 7 3 4 1005.2 1005.2 1.0
20/06:30pm 25.5 30.0 23.0 86 1.7 S 4 9 2 5 1005.5 1005.5 0.8
20/06:00pm 25.6 28.4 22.3 82 2.2 W 11 19 6 10 1006.2 1006.2 0.6
20/05:30pm 26.0 28.7 22.1 79 2.6 W 11 15 6 8 1005.7 1005.7 0.0
20/05:00pm 26.4 28.9 21.8 76 3.1 W 11 19 6 10 1005.6 1005.6 0.0
20/04:30pm 26.7 29.1 21.5 73 3.5 W 11 15 6 8 1005.6 1005.6 0.0
20/04:19pm 27.6 29.0 21.9 71 3.8 WNW 17 35 9 19 1005.5 1005.5 0.0
20/04:00pm 29.1 30.1 22.1 66 4.7 WNW 20 35 11 19 1006.3 1006.3 0.0
20/03:30pm 30.2 34.0 25.3 75 3.5 N 15 22 8 12 1005.1 1005.1 0.0
20/03:23pm 30.4 33.6 25.0 73 3.8 N 17 20 9 11 1005.0 1005.0 0.0
20/03:00pm 30.6 35.3 25.0 72 3.9 N 9 15 5 8 1005.2 1005.2 0.0
20/02:30pm 30.6 34.7 24.5 70 4.3 NNW 11 17 6 9 1005.4 1005.4 0.0
20/02:00pm 31.4 35.1 24.5 67 4.8 N 13 20 7 11 1005.8 1005.8 0.0
20/01:30pm 31.5 35.0 24.9 68 4.6 N 15 22 8 12 1005.9 1005.9 0.0
20/01:00pm 31.5 35.7 25.4 70 4.3 NNE 13 20 7 11 1005.9 1005.9 0.0
20/12:30pm 31.7 34.7 24.6 66 5.0 N 17 24 9 13 1005.8 1005.8 0.0
20/12:00pm 31.4 35.2 25.3 70 4.3 N 15 26 8 14 1005.9 1005.9 0.0

Other formats

Comma delimited format used in spreadsheet applications
http://www.bom.gov.au/fwo/IDQ60801/IDQ60801.94287.axf

JavaScript Object Notation format (JSON) in row-major order
http://www.bom.gov.au/fwo/IDQ60801/IDQ60801.94287.json

Data quality

Most of these data are generated automatically and are frequently updated. Quality checks on data are not normally performed. It is possible for incorrect values to appear. Refer to information at About Latest Weather Observations and please check the disclaimer before using these data.